메인 페이지
METAR-TAF:

METAR-TAF

공항 :

엘토르, 이집트

위도: 28-14N, 경도: 032-37E, 고도: 21m

현재 날씨관측

예보는 2 시간 21분 전, 14:00시(UTC)에 발표되었습니다.
서북서28kt
온도 27°C
습도 54%
기압 1009 hPa
시정: 3000m
모래

METAR: HETR 311400Z 30028KT 3000 SA NSC 27/17 Q1009

시각: 18:21 (16:21 UTC)

예보

예보는 5 시간 21분 전, 11:00시(UTC)에 발표되었습니다.
예보 대상 시간: 31일 12시부터 01일 18시까지 (UTC)
북서20kt, 순간 최대 풍속 32kt
시정: 6000m
일시적
31일 12시부터 31일 18시까지 (UTC)
시정: 3000m
모래

TAF: HETR 311100Z 3112/0118 31020G32KT 6000 NSC TEMPO 3112/3118 3000 SA

4,000개 이상의 공항 관측 자료 및 예보 (METAR 및 TAF 보고).

지도상에서 검색 가능한 기상관측소가 노란 점과 빨간 점으로 표시되어 있습니다.

기상관측소 명을 보려면 표시 위로 마우스를 이동하세요.

날씨 관측과 예보를 보려면 클릭하세요.

지도 변경 : 확대하려면 엑스 표시가 있는 녹색 버튼, 축소하려면 빼기 표시가 있는 녹색 버튼, 다음 페이지의 지도를 보려면 녹색 화살표를 클릭하세요.


METAR-TAF: